Stormwatcher's Retreat Logo




                  Temp     Hi    Low   Out    Dew  Wind  Wind   Wind    Hi    Hi   Wind   Heat    THW   THSW                Rain  Solar   Solar Hi Solar   UV    UV    Hi     Heat    Cool    In     In    In     In     In   In Air          Wind  Wind    ISS   Arc.
  Date    Time     Out   Temp   Temp   Hum    Pt. Speed   Dir    Run Speed   Dir  Chill  Index  Index  Index   Bar    Rain  Rate   Rad.  Energy    Rad.  Index  Dose   UV     D-D     D-D    Temp   Hum    Dew   Heat    EMC Density     ET   Samp   Tx   Recept  Int.
------------------------------------------------------------------------------------------------------------------------------------------------------------------------------------------------------------------------------------------------------------------------
 8/14/22 12:10a   61.5   61.5   61.4    94   59.8   4.0    NE   0.67  11.0    NE   61.5   62.1   62.1   59.7  30.161  0.00  0.00     0     0.00      0     0.0  0.00   0.0   0.024   0.000   74.2    60   59.4   74.9  10.97  .0737    0.000   203    7    100.0   10 
 8/14/22 12:20a   61.7   61.7   61.5    94   60.0   4.0    NE   0.67   9.0    NE   61.7   62.3   62.3   59.9  30.160  0.00  0.00     0     0.00      0     0.0  0.00   0.0   0.023   0.000   74.2    60   59.4   74.9  10.97  .0737    0.000   202    7    100.0   10 
 8/14/22 12:30a   61.7   61.8   61.7    94   60.0   4.0    NE   0.67  10.0    NE   61.7   62.3   62.3   59.9  30.158  0.00  0.00     0     0.00      0     0.0  0.00   0.0   0.023   0.000   74.1    61   59.8   74.9  11.09  .0737    0.000   204    7    100.0   10 
 8/14/22 12:40a   61.7   61.8   61.7    94   60.0   4.0    NE   0.67   9.0   NNE   61.7   62.3   62.3   59.9  30.159  0.00  0.00     0     0.00      0     0.0  0.00   0.0   0.023   0.000   74.1    60   59.3   74.8  10.97  .0737    0.000   204    7    100.0   10 
 8/14/22 12:50a   61.7   61.7   61.6    95   60.3   3.0    NE   0.50  10.0    NE   61.7   62.3   62.3   60.0  30.162  0.00  0.00     0     0.00      0     0.0  0.00   0.0   0.023   0.000   74.0    60   59.2   74.7  10.97  .0737    0.000   204    7    100.0   10 
 8/14/22  1:00a   61.6   61.7   61.5    95   60.2   3.0    NE   0.50  11.0    NE   61.6   62.2   62.2   59.9  30.162  0.00  0.00     0     0.00      0     0.0  0.00   0.0   0.024   0.000   74.1    60   59.3   74.8  10.97  .0737    0.000   203    7    100.0   10 
 8/14/22  1:10a   61.6   61.7   61.5    95   60.2   3.0    NE   0.50   9.0    NE   61.6   62.2   62.2   59.9  30.162  0.00  0.00     0     0.00      0     0.0  0.00   0.0   0.024   0.000   74.0    60   59.2   74.7  10.97  .0737    0.000   201    7    100.0   10 
 8/14/22  1:20a   61.4   61.7   61.4    95   60.0   1.0    NE   0.17   4.0   NNE   61.4   62.0   62.0   59.6  30.161  0.00  0.00     0     0.00      0     0.0  0.00   0.0   0.025   0.000   74.1    60   59.3   74.8  10.97  .0737    0.000   204    7    100.0   10 
 8/14/22  1:30a   61.0   61.4   61.0    94   59.3   1.0    NE   0.17   3.0   NNE   61.0   61.5   61.5   59.1  30.160  0.00  0.00     0     0.00      0     0.0  0.00   0.0   0.028   0.000   74.0    60   59.2   74.7  10.97  .0737    0.000   203    7    100.0   10 
 8/14/22  1:40a   60.5   61.0   60.5    94   58.8   0.0    NE   0.00   1.0    NE   60.5   60.9   60.9   58.5  30.161  0.00  0.00     0     0.00      0     0.0  0.00   0.0   0.031   0.000   74.1    60   59.3   74.8  10.97  .0737    0.000   201    7    100.0   10 
 8/14/22  1:50a   60.0   60.5   60.0    94   58.3   0.0    NE   0.00   1.0    NE   60.0   60.4   60.4   58.0  30.158  0.00  0.00     0     0.00      0     0.0  0.00   0.0   0.035   0.000   74.0    60   59.2   74.7  10.97  .0737    0.000   204    7    100.0   10 
 8/14/22  2:00a   59.4   60.0   59.4    94   57.7   0.0    NE   0.00   1.0    NE   59.4   59.8   59.8   57.3  30.159  0.00  0.00     0     0.00      0     0.0  0.00   0.0   0.039   0.000   74.0    60   59.2   74.7  10.97  .0737    0.000   202    7    100.0   10 
 8/14/22  2:10a   59.1   59.4   59.1    94   57.4   0.0    NE   0.00   1.0    NE   59.1   59.5   59.5   57.0  30.158  0.00  0.00     0     0.00      0     0.0  0.00   0.0   0.041   0.000   74.0    60   59.2   74.7  10.97  .0737    0.000   203    7    100.0   10 
 8/14/22  2:20a   58.8   59.1   58.8    94   57.1   0.0    NE   0.00   1.0    NE   58.8   59.1   59.1   56.6  30.161  0.00  0.00     0     0.00      0     0.0  0.00   0.0   0.043   0.000   74.0    60   59.2   74.7  10.97  .0737    0.000   202    7    100.0   10 
 8/14/22  2:30a   58.4   58.8   58.4    94   56.7   0.0    NE   0.00   1.0    NE   58.4   58.7   58.7   56.2  30.162  0.00  0.00     0     0.00      0     0.0  0.00   0.0   0.046   0.000   73.9    60   59.1   74.6  10.97  .0737    0.000   204    7    100.0   10 
 8/14/22  2:40a   57.5   58.4   57.5    94   55.8   0.0    NE   0.00   1.0    NE   57.5   57.7   57.7   55.1  30.157  0.00  0.00     0     0.00      0     0.0  0.00   0.0   0.052   0.000   73.9    60   59.1   74.6  10.97  .0737    0.000   204    7    100.0   10 
 8/14/22  2:50a   56.9   57.5   56.9    94   55.2   1.0    NE   0.17   2.0    NE   56.9   57.1   57.1   54.5  30.158  0.00  0.00     0     0.00      0     0.0  0.00   0.0   0.056   0.000   73.8    59   58.6   74.3  10.80  .0737    0.000   203    7    100.0   10 
 8/14/22  3:00a   56.7   56.9   56.6    95   55.3   1.0    NE   0.17   2.0    NE   56.7   56.9   56.9   54.3  30.159  0.00  0.00     0     0.00      0     0.0  0.00   0.0   0.058   0.000   73.8    59   58.6   74.3  10.80  .0738    0.000   203    7    100.0   10 
 8/14/22  3:10a   56.9   56.9   56.7    95   55.5   0.0    NE   0.00   1.0    NE   56.9   57.1   57.1   54.5  30.158  0.00  0.00     0     0.00      0     0.0  0.00   0.0   0.056   0.000   73.8    59   58.6   74.3  10.80  .0737    0.000   202    7    100.0   10 
 8/14/22  3:20a   57.0   57.0   56.8    95   55.6   0.0    NE   0.00   1.0    NE   57.0   57.2   57.2   54.6  30.155  0.00  0.00     0     0.00      0     0.0  0.00   0.0   0.056   0.000   73.8    59   58.6   74.3  10.80  .0737    0.000   203    7    100.0   10 
 8/14/22  3:30a   57.0   57.1   57.0    95   55.6   0.0    NE   0.00   1.0    NE   57.0   57.2   57.2   54.6  30.156  0.00  0.00     0     0.00      0     0.0  0.00   0.0   0.056   0.000   73.7    59   58.5   74.2  10.80  .0738    0.000   203    7    100.0   10 
 8/14/22  3:40a   57.1   57.1   57.0    95   55.7   0.0   ---   0.00   0.0   ---   57.1   57.3   57.3   54.7  30.156  0.00  0.00     0     0.00      0     0.0  0.00   0.0   0.055   0.000   73.7    59   58.5   74.2  10.80  .0738    0.000   204    7    100.0   10 
 8/14/22  3:50a   57.2   57.2   57.0    95   55.8   0.0    NE   0.00   2.0    NE   57.2   57.4   57.4   54.8  30.157  0.00  0.00     0     0.00      0     0.0  0.00   0.0   0.054   0.000   73.7    59   58.5   74.2  10.80  .0738    0.000   204    7    100.0   10 
 8/14/22  4:00a   57.1   57.2   57.1    95   55.7   0.0    NE   0.00   1.0    NE   57.1   57.3   57.3   54.7  30.155  0.00  0.00     0     0.00      0     0.0  0.00   0.0   0.055   0.000   73.6    59   58.4   74.1  10.81  .0738    0.000   202    7    100.0   10 
 8/14/22  4:10a   57.0   57.2   57.0    95   55.6   0.0    NE   0.00   1.0    NE   57.0   57.2   57.2   54.6  30.152  0.00  0.00     0     0.00      0     0.0  0.00   0.0   0.056   0.000   73.5    59   58.3   74.0  10.81  .0738    0.000   203    7    100.0   10 
 8/14/22  4:20a   56.9   57.0   56.8    95   55.5   0.0    NE   0.00   1.0    NE   56.9   57.1   57.1   54.5  30.153  0.00  0.00     0     0.00      0     0.0  0.00   0.0   0.056   0.000   73.5    59   58.3   74.0  10.81  .0738    0.000   204    7    100.0   10 
 8/14/22  4:30a   56.9   56.9   56.8    95   55.5   0.0    NE   0.00   1.0    NE   56.9   57.1   57.1   54.5  30.153  0.00  0.00     0     0.00      0     0.0  0.00   0.0   0.056   0.000   73.4    59   58.2   73.8  10.81  .0738    0.000   205    7    100.0   10 
 8/14/22  4:40a   56.8   56.9   56.8    95   55.4   0.0    NE   0.00   1.0    NE   56.8   57.0   57.0   54.4  30.154  0.00  0.00     0     0.00      0     0.0  0.00   0.0   0.057   0.000   73.4    59   58.2   73.8  10.81  .0738    0.000   202    7    100.0   10 
 8/14/22  4:50a   56.6   56.8   56.6    96   55.5   0.0    NE   0.00   1.0    NE   56.6   56.8   56.8   54.2  30.150  0.00  0.00     0     0.00      0     0.0  0.00   0.0   0.058   0.000   73.3    58   57.6   73.6  10.62  .0738    0.000   203    7    100.0   10 
 8/14/22  5:00a   56.4   56.6   56.4    96   55.3   0.0    NE   0.00   1.0    NE   56.4   56.6   56.6   54.0  30.154  0.00  0.00     0     0.00      0     0.0  0.00   0.0   0.060   0.000   73.2    59   58.0   73.6  10.82  .0738    0.000   203    7    100.0   10 
 8/14/22  5:10a   56.2   56.4   56.2    96   55.1   0.0    NE   0.00   1.0    NE   56.2   56.4   56.4   53.8  30.157  0.00  0.00     0     0.00      0     0.0  0.00   0.0   0.061   0.000   73.2    59   58.0   73.6  10.82  .0739    0.000   205    7    100.0   10 
 8/14/22  5:20a   56.0   56.3   56.0    96   54.9   0.0    NE   0.00   2.0    NE   56.0   56.2   56.2   53.6  30.154  0.00  0.00     0     0.00      0     0.0  0.00   0.0   0.063   0.000   73.2    58   57.5   73.5  10.62  .0739    0.000   202    7    100.0   10 
 8/14/22  5:30a   56.2   56.2   56.0    96   55.1   0.0    NE   0.00   1.0    NE   56.2   56.4   56.4   53.8  30.158  0.00  0.00     0     0.00      0     0.0  0.00   0.0   0.061   0.000   73.1    58   57.4   73.4  10.63  .0739    0.000   204    7    100.0   10 
 8/14/22  5:40a   56.0   56.2   56.0    96   54.9   0.0    NE   0.00   1.0    NE   56.0   56.2   56.2   53.6  30.156  0.00  0.00     0     0.00      0     0.0  0.00   0.0   0.063   0.000   73.1    58   57.4   73.4  10.63  .0739    0.000   202    7    100.0   10 
 8/14/22  5:50a   55.8   56.0   55.7    96   54.7   1.0    NE   0.17   2.0    NE   55.8   56.0   56.0   53.4  30.155  0.00  0.00     0     0.00      0     0.0  0.00   0.0   0.064   0.000   73.1    58   57.4   73.4  10.63  .0739    0.000   203    7    100.0   10 
 8/14/22  6:00a   55.8   55.9   55.7    96   54.7   0.0    NE   0.00   1.0    NE   55.8   56.0   56.0   53.4  30.156  0.00  0.00     0     0.00      0     0.0  0.00   0.0   0.064   0.000   73.0    58   57.3   73.2  10.63  .0739    0.000   204    7    100.0   10 
 8/14/22  6:10a   55.9   55.9   55.8    96   54.8   0.0    NE   0.00   2.0    NE   55.9   56.1   56.1   53.5  30.159  0.00  0.00     0     0.00      0     0.0  0.00   0.0   0.063   0.000   72.9    58   57.3   73.1  10.63  .0739    0.000   204    7    100.0   10 
 8/14/22  6:20a   55.9   55.9   55.8    96   54.8   0.0    NE   0.00   1.0    NE   55.9   56.1   56.1   53.5  30.160  0.00  0.00     3     0.04      5     0.0  0.00   0.0   0.063   0.000   72.9    58   57.3   73.1  10.63  .0739    0.000   204    7    100.0   10 
 8/14/22  6:30a   55.9   56.0   55.8    96   54.8   0.0    NE   0.00   1.0    NE   55.9   56.1   56.1   53.7  30.160  0.00  0.00     8     0.11      9     0.0  0.00   0.0   0.063   0.000   72.9    58   57.3   73.1  10.63  .0739    0.000   202    7    100.0   10 
 8/14/22  6:40a   55.6   55.9   55.6    96   54.5   1.0     E   0.17   2.0   ENE   55.6   55.8   55.8   53.4  30.157  0.00  0.00    11     0.16     12     0.0  0.00   0.0   0.065   0.000   72.9    58   57.3   73.1  10.63  .0739    0.000   204    7    100.0   10 
 8/14/22  6:50a   55.8   55.8   55.6    97   55.0   1.0     E   0.17   2.0     E   55.8   56.1   56.1   53.8  30.160  0.00  0.00    14     0.20     16     0.0  0.00   0.0   0.064   0.000   72.8    58   57.2   72.9  10.64  .0740    0.000   204    7    100.0   10 
 8/14/22  7:00a   55.6   55.8   55.6    96   54.5   1.0     E   0.17   2.0     E   55.6   55.8   55.8   54.8  30.163  0.00  0.00    19     0.27     21     0.0  0.00   0.0   0.065   0.000   72.8    58   57.2   72.9  10.64  .0740    0.000   203    7    100.0   10 
 8/14/22  7:10a   55.7   55.7   55.6    96   54.6   1.0     E   0.17   2.0     E   55.7   55.9   55.9   55.2  30.163  0.00  0.00    24     0.34     25     0.0  0.00   0.0   0.065   0.000   72.8    58   57.2   72.9  10.64  .0740    0.000   200    7    100.0   10 
 8/14/22  7:20a   56.0   56.0   55.7    96   54.9   0.0     E   0.00   1.0     E   56.0   56.2   56.2   55.6  30.166  0.00  0.00    27     0.39     28     0.0  0.00   0.0   0.063   0.000   72.8    58   57.2   72.9  10.64  .0740    0.000   202    7    100.0   10 
 8/14/22  7:30a   56.1   56.1   55.9    96   55.0   0.0     E   0.00   2.0     E   56.1   56.3   56.3   55.7  30.171  0.00  0.00    29     0.42     30     0.0  0.00   0.0   0.062   0.000   72.8    58   57.2   72.9  10.64  .0740    0.000   200    7    100.0   10 
 8/14/22  7:40a   56.1   56.2   56.1    97   55.3   0.0     E   0.00   1.0     E   56.1   56.4   56.4   55.9  30.170  0.00  0.00    32     0.46     33     0.0  0.00   0.0   0.062   0.000   72.8    58   57.2   72.9  10.64  .0740    0.000   205    7    100.0   10 
 8/14/22  7:50a   56.2   56.2   56.1    96   55.1   0.0     E   0.00   1.0     E   56.2   56.4   56.4   56.6  30.170  0.00  0.00    49     0.70    135     0.0  0.00   0.0   0.061   0.000   72.8    58   57.2   72.9  10.64  .0740    0.000   203    7    100.0   10 
 8/14/22  8:00a   57.0   57.0   56.2    97   56.2   0.0     E   0.00   1.0     E   57.0   57.3   57.3   64.3  30.172  0.00  0.00   242     3.47    260     0.4  0.03   0.5   0.056   0.000   72.8    58   57.2   72.9  10.64  .0740    0.001   202    7    100.0   10 
 8/14/22  8:10a   59.1   59.1   57.1    98   58.5   0.0     E   0.00   1.0     E   59.1   59.6   59.6   67.4  30.170  0.00  0.00   275     3.94    287     0.6  0.04   0.7   0.041   0.000   72.8    58   57.2   72.9  10.64  .0740    0.000   204    7    100.0   10 
 8/14/22  8:20a   58.8   60.1   58.8    95   57.4   1.0   SSE   0.17   2.0     E   58.8   59.2   59.2   67.4  30.169  0.00  0.00   303     4.34    316     0.8  0.06   0.8   0.043   0.000   72.8    58   57.2   72.9  10.64  .0740    0.000   204    7    100.0   10 
 8/14/22  8:30a   58.3   58.8   58.2    96   57.2   0.0   SSE   0.00   1.0   SSE   58.3   58.6   58.6   67.2  30.170  0.00  0.00   331     4.74    343     0.9  0.06   1.0   0.047   0.000   72.8    58   57.2   72.9  10.64  .0740    0.000   203    7    100.0   10 
 8/14/22  8:40a   58.6   58.6   58.2    96   57.5   0.0   SSE   0.00   2.0   SSE   58.6   59.0   59.0   68.1  30.170  0.00  0.00   362     5.19    380     1.1  0.08   1.2   0.044   0.000   72.8    58   57.2   72.9  10.64  .0740    0.000   203    7    100.0   10 
 8/14/22  8:50a   58.4   58.6   58.4    96   57.3   1.0   SSE   0.17   2.0   SSE   58.4   58.8   58.8   68.3  30.167  0.00  0.00   396     5.68    411     1.3  0.09   1.4   0.046   0.000   72.9    58   57.3   73.1  10.63  .0740    0.000   204    7    100.0   10 
 8/14/22  9:00a   58.8   58.8   58.5    96   57.7   1.0   SSW   0.17   3.0   NNE   58.8   59.2   59.2   69.0  30.165  0.00  0.00   426     6.11    438     1.5  0.11   1.6   0.043   0.000   72.9    58   57.3   73.1  10.63  .0739    0.007   201    7    100.0   10 
 8/14/22  9:10a   59.6   59.7   58.9    95   58.2   3.0     N   0.50   5.0   NNW   59.6   60.0   60.0   70.1  30.164  0.00  0.00   456     6.54    469     1.7  0.12   1.8   0.038   0.000   72.9    58   57.3   73.1  10.63  .0739    0.000   202    7    100.0   10 
 8/14/22  9:20a   60.0   60.0   59.6    95   58.6   3.0     N   0.50   5.0     N   60.0   60.4   60.4   70.7  30.165  0.00  0.00   486     6.97    497     1.9  0.14   2.0   0.035   0.000   73.0    58   57.3   73.2  10.63  .0739    0.000   203    7    100.0   10 
 8/14/22  9:30a   60.5   60.5   60.0    95   59.1   4.0     N   0.67   7.0     N   60.5   61.0   61.0   71.5  30.169  0.00  0.00   512     7.34    524     2.2  0.16   2.3   0.031   0.000   73.0    58   57.3   73.2  10.63  .0739    0.000   204    7    100.0   10 
 8/14/22  9:40a   60.8   60.8   60.5    94   59.1   4.0     N   0.67   8.0     N   60.8   61.3   61.3   72.0  30.169  0.00  0.00   538     7.71    550     2.4  0.17   2.5   0.029   0.000   73.0    58   57.3   73.2  10.63  .0739    0.000   203    7    100.0   10 
 8/14/22  9:50a   60.7   60.9   60.6    94   59.0   4.0     N   0.67   8.0     N   60.7   61.2   61.2   71.9  30.171  0.00  0.00   563     8.07    575     2.7  0.19   2.8   0.030   0.000   73.1    58   57.4   73.4  10.63  .0739    0.000   204    7    100.0   10 
 8/14/22 10:00a   60.6   60.7   60.6    94   58.9   5.0     N   0.83   9.0   NNE   60.6   61.0   61.0   71.9  30.173  0.00  0.00   589     8.44    601     2.9  0.21   3.0   0.031   0.000   73.1    58   57.4   73.4  10.63  .0739    0.011   204    7    100.0   10 
 8/14/22 10:10a   60.5   60.8   60.4    93   58.5   5.0     N   0.83   9.0     N   60.5   60.9   60.9   71.8  30.172  0.00  0.00   613     8.79    622     3.2  0.23   3.3   0.031   0.000   73.2    58   57.5   73.5  10.62  .0739    0.000   201    7    100.0   10 
 8/14/22 10:20a   61.1   61.3   60.5    93   59.1   5.0     N   0.83   9.0     N   61.1   61.6   61.6   72.7  30.171  0.00  0.00   636     9.12    645     3.4  0.24   3.6   0.027   0.000   73.2    58   57.5   73.5  10.62  .0739    0.000   202    7    100.0   10 
 8/14/22 10:30a   61.3   61.4   61.1    93   59.3   6.0     N   1.00  10.0     N   61.2   61.8   61.7   72.8  30.167  0.00  0.00   658     9.43    668     3.7  0.26   3.9   0.026   0.000   73.2    58   57.5   73.5  10.62  .0739    0.000   203    7    100.0   10 
 8/14/22 10:40a   61.4   61.4   61.0    94   59.7   6.0     N   1.00  11.0     N   61.3   62.0   61.9   73.1  30.166  0.00  0.00   679     9.73    689     4.0  0.29   4.1   0.025   0.000   73.3    58   57.6   73.6  10.62  .0739    0.000   204    7    100.0   10 
 8/14/22 10:50a   62.0   62.0   61.4    93   60.0   6.0     N   1.00  11.0   NNE   62.0   62.6   62.6   73.8  30.166  0.00  0.00   700    10.03    708     4.3  0.31   4.4   0.021   0.000   73.3    58   57.6   73.6  10.62  .0739    0.000   205    7    100.0   10 
 8/14/22 11:00a   61.4   62.0   61.3    93   59.4   7.0     N   1.17  10.0     N   60.9   61.9   61.4   72.4  30.165  0.00  0.00   720    10.32    728     4.6  0.33   4.7   0.025   0.000   73.3    59   58.1   73.7  10.82  .0739    0.014   203    7    100.0   10 
 8/14/22 11:10a   61.7   61.7   61.4    92   59.4   5.0     N   0.83   9.0     N   61.7   62.2   62.2   73.5  30.168  0.00  0.00   737    10.57    744     4.9  0.35   5.0   0.023   0.000   73.4    59   58.2   73.8  10.81  .0738    0.000   204    7    100.0   10 
 8/14/22 11:20a   61.7   61.7   61.5    92   59.4   6.0     N   1.00   9.0     N   61.6   62.2   62.1   73.4  30.167  0.00  0.00   753    10.79    761     5.1  0.36   5.2   0.023   0.000   73.4    59   58.2   73.8  10.81  .0738    0.000   204    7    100.0   10 
 8/14/22 11:30a   62.7   62.7   61.6    93   60.6   6.0     N   1.00  11.0    NE   62.7   63.4   63.4   74.8  30.171  0.00  0.00   769    11.02    777     5.4  0.39   5.5   0.016   0.000   73.4    59   58.2   73.8  10.81  .0739    0.000   205    7    100.0   10 
 8/14/22 11:40a   63.2   63.2   62.7    92   60.8   6.0   NNE   1.00  10.0   NNE   63.2   64.0   64.0   75.4  30.174  0.00  0.00   784    11.24    793     5.7  0.41   5.8   0.012   0.000   73.5    59   58.3   74.0  10.81  .0738    0.000   203    7    100.0   10 
 8/14/22 11:50a   64.2   64.2   63.3    91   61.5   7.0   NNE   1.17  13.0    NE   64.2   65.1   65.1   76.3  30.171  0.00  0.00   797    11.43    803     5.9  0.42   6.0   0.006   0.000   73.5    59   58.3   74.0  10.81  .0738    0.000   202    7    100.0   10 
 8/14/22 12:00p   64.9   64.9   64.3    91   62.2   8.0   NNE   1.33  15.0   NNW   64.3   65.9   65.3   76.2  30.170  0.00  0.00   808    11.58    814     6.2  0.44   6.3   0.001   0.000   73.6    59   58.4   74.1  10.81  .0738    0.017   201    7    100.0   10 
 8/14/22 12:10p   64.9   65.2   64.6    90   61.9   8.0    NE   1.33  14.0    NW   64.3   65.9   65.3   76.1  30.169  0.00  0.00   819    11.74    823     6.4  0.46   6.5   0.001   0.000   73.5    59   58.3   74.0  10.81  .0738    0.000   204    7    100.0   10 
 8/14/22 12:20p   65.5   65.5   64.8    89   62.2   8.0   NNE   1.33  15.0   NNE   64.9   66.6   66.0   76.9  30.169  0.00  0.00   828    11.87    833     6.6  0.47   6.7   0.000   0.003   73.3    60   58.6   73.8  10.98  .0738    0.000   203    7    100.0   10 
 8/14/22 12:30p   65.4   65.5   65.2    89   62.1   9.0   NNE   1.50  15.0   NNE   64.0   66.5   65.1   75.6  30.166  0.00  0.00   836    11.98    838     6.7  0.48   6.8   0.000   0.003   73.2    60   58.5   73.7  10.99  .0739    0.000   202    7    100.0   10 
 8/14/22 12:40p   65.3   65.6   65.2    88   61.7   9.0   NNE   1.50  15.0     N   63.9   66.3   64.9   75.4  30.167  0.00  0.00   841    12.06    844     6.9  0.49   6.9   0.000   0.002   73.2    60   58.5   73.7  10.99  .0739    0.000   203    7    100.0   10 
 8/14/22 12:50p   66.1   66.2   65.3    88   62.4   7.0    NE   1.17  12.0   NNE   66.1   67.3   67.3   78.6  30.165  0.00  0.00   845    12.11    849     7.0  0.50   7.1   0.000   0.008   73.0    61   58.8   73.5  11.13  .0739    0.000   200    7    100.0   10 
 8/14/22  1:00p   65.7   66.7   65.7    87   61.7   7.0   NNE   1.17  13.0     N   65.7   66.7   66.7   77.9  30.161  0.00  0.00   852    12.21    854     7.2  0.51   7.2   0.000   0.005   73.0    61   58.8   73.5  11.13  .0739    0.019   204    7    100.0   10 
 8/14/22  1:10p   66.0   66.0   65.1    89   62.7   8.0   NNE   1.33  14.0    NE   65.4   67.2   66.6   77.5  30.156  0.00  0.00   851    12.20    853     7.2  0.51   7.2   0.000   0.007   73.1    61   58.8   73.6  11.13  .0738    0.000   204    7    100.0   10 
 8/14/22  1:20p   66.4   66.5   66.0    88   62.7   8.0    NE   1.33  16.0   NNE   65.8   67.7   67.1   78.0  30.157  0.00  0.00   853    12.23    854     7.2  0.51   7.2   0.000   0.010   73.0    61   58.8   73.5  11.13  .0738    0.000   203    7    100.0   10 
 8/14/22  1:30p   66.1   66.8   66.1    87   62.1   8.0    NE   1.33  14.0   NNE   65.5   67.2   66.6   77.5  30.159  0.00  0.00   851    12.20    853     7.2  0.51   7.2   0.000   0.008   72.9    62   59.1   73.4  11.29  .0739    0.000   203    7    100.0   10 
 8/14/22  1:40p   65.4   66.1   65.4    89   62.1   9.0   NNE   1.50  14.0   NNE   64.0   66.5   65.1   75.6  30.162  0.00  0.00   847    12.14    849     7.1  0.51   7.2   0.000   0.003   72.8    62   59.0   73.2  11.29  .0739    0.000   200    7    100.0   10 
 8/14/22  1:50p   65.9   65.9   65.5    89   62.6   9.0   NNE   1.50  16.0   NNE   64.6   67.1   65.8   76.3  30.160  0.00  0.00   843    12.08    847     7.1  0.51   7.1   0.000   0.006   72.7    63   59.4   73.1  11.50  .0739    0.000   204    7    100.0   10 
 8/14/22  2:00p   65.7   65.9   65.6    89   62.4  10.0   NNE   1.67  14.0   ENE   63.6   66.9   64.8   74.9  30.159  0.00  0.00   837    12.00    840     7.0  0.50   7.1   0.000   0.005   72.6    63   59.3   73.0  11.50  .0739    0.019   205    7    100.0   10 
 8/14/22  2:10p   66.2   66.2   65.5    89   62.9   9.0   NNE   1.50  14.0   NNE   64.9   67.5   66.2   76.7  30.160  0.00  0.00   830    11.90    833     6.9  0.49   6.9   0.000   0.008   72.5    63   59.2   72.9  11.50  .0739    0.000   204    7    100.0   10 
 8/14/22  2:20p   67.4   67.4   66.3    87   63.4   8.0    NE   1.33  14.0   NNE   66.8   68.9   68.3   79.2  30.159  0.00  0.00   822    11.78    826     6.8  0.49   6.8   0.000   0.017   72.4    64   59.5   72.8  11.65  .0739    0.000   202    7    100.0   10 
 8/14/22  2:30p   66.8   67.3   66.7    86   62.5  10.0   NNE   1.67  17.0    NE   64.8   68.1   66.1   76.1  30.158  0.00  0.00   813    11.65    817     6.7  0.48   6.7   0.000   0.013   72.4    64   59.5   72.8  11.65  .0739    0.000   203    7    100.0   10 
 8/14/22  2:40p   66.7   66.8   66.5    87   62.7  10.0   NNE   1.67  17.0   NNE   64.7   68.0   66.0   76.0  30.160  0.00  0.00   799    11.45    805     6.5  0.46   6.5   0.000   0.012   72.4    63   59.1   72.7  11.50  .0739    0.000   203    7    100.0   10 
 8/14/22  2:50p   67.1   67.1   66.7    87   63.1   9.0   NNE   1.50  15.0   NNE   65.8   68.5   67.2   77.7  30.165  0.00  0.00   788    11.30    793     6.3  0.45   6.4   0.000   0.015   72.5    63   59.2   72.9  11.50  .0739    0.000   203    7    100.0   10 
 8/14/22  3:00p   68.2   68.3   67.1    86   63.9   8.0   NNE   1.33  15.0     N   67.5   69.8   69.1   79.9  30.159  0.00  0.00   778    11.15    782     6.1  0.44   6.1   0.000   0.022   72.6    63   59.3   73.0  11.50  .0739    0.019   202    7    100.0   10 
 8/14/22  3:10p   67.6   68.3   67.6    85   62.9   9.0   NNE   1.50  16.0   NNE   66.2   69.0   67.6   77.9  30.159  0.00  0.00   763    10.94    770     5.8  0.41   5.9   0.000   0.018   72.7    63   59.4   73.1  11.50  .0739    0.000   203    7    100.0   10 
 8/14/22  3:20p   67.6   67.6   67.3    86   63.3   9.0   NNE   1.50  15.0   NNW   66.2   69.1   67.7   78.1  30.158  0.00  0.00   747    10.71    752     5.6  0.40   5.7   0.000   0.018   72.9    63   59.6   73.4  11.49  .0738    0.000   205    7    100.0   10 
 8/14/22  3:30p   67.9   68.0   67.5    85   63.2   8.0   NNE   1.33  14.0   NNE   67.2   69.4   68.7   79.4  30.154  0.00  0.00   729    10.45    737     5.3  0.38   5.4   0.000   0.020   73.0    63   59.7   73.6  11.49  .0738    0.000   202    7    100.0   10 
 8/14/22  3:40p   67.7   67.9   67.4    86   63.4  10.0   NNE   1.67  15.0   NNE   65.6   69.2   67.1   77.0  30.153  0.00  0.00   710    10.18    717     5.0  0.36   5.1   0.000   0.019   73.1    63   59.8   73.7  11.49  .0738    0.000   202    7    100.0   10 
 8/14/22  3:50p   67.3   67.9   67.3    85   62.6   9.0   NNE   1.50  15.0   NNE   66.0   68.7   67.4   77.6  30.153  0.00  0.00   690     9.89    701     4.7  0.34   4.9   0.000   0.016   73.2    63   59.8   73.9  11.49  .0738    0.000   201    7    100.0   10 
 8/14/22  4:00p   67.1   67.4   66.9    86   62.8   9.0   NNE   1.50  15.0   NNE   65.8   68.5   67.2   77.4  30.153  0.00  0.00   669     9.59    679     4.4  0.31   4.5   0.000   0.015   73.3    63   59.9   74.0  11.48  .0737    0.017   202    7    100.0   10 
 8/14/22  4:10p   67.5   67.6   67.1    85   62.8   8.0   NNE   1.33  15.0   NNE   66.9   68.9   68.3   78.8  30.151  0.00  0.00   647     9.27    657     4.1  0.29   4.2   0.000   0.017   73.4    62   59.6   74.1  11.28  .0737    0.000   204    7    100.0   10 
 8/14/22  4:20p   67.4   67.7   67.2    85   62.7   9.0   NNE   1.50  15.0   NNE   66.1   68.8   67.5   77.6  30.149  0.00  0.00   622     8.92    631     3.8  0.27   4.0   0.000   0.017   73.5    62   59.7   74.2  11.28  .0737    0.000   203    7    100.0   10 
 8/14/22  4:30p   67.7   68.1   67.5    85   63.0   9.0   NNE   1.50  14.0    NE   66.3   69.1   67.7   77.8  30.146  0.00  0.00   599     8.59    610     3.5  0.25   3.7   0.000   0.019   73.6    62   59.8   74.3  11.28  .0737    0.000   203    7    100.0   10 
 8/14/22  4:40p   67.1   67.7   67.0    85   62.4  10.0   NNE   1.67  16.0   NNE   65.1   68.4   66.4   76.1  30.141  0.00  0.00   576     8.26    585     3.3  0.24   3.4   0.000   0.015   73.7    62   59.9   74.5  11.28  .0737    0.000   202    7    100.0   10 
 8/14/22  4:50p   68.0   68.1   67.1    84   63.0   8.0    NE   1.33  15.0     N   67.3   69.5   68.8   79.1  30.141  0.00  0.00   551     7.90    561     3.0  0.21   3.1   0.000   0.021   73.7    62   59.9   74.5  11.28  .0737    0.000   204    7    100.0   10 
 8/14/22  5:00p   67.4   68.0   67.3    85   62.7   9.0   NNE   1.50  16.0     N   66.1   68.8   67.5   77.3  30.137  0.00  0.00   525     7.53    538     2.7  0.19   2.8   0.000   0.017   73.8    62   60.0   74.6  11.27  .0736    0.014   203    7    100.0   10 
 8/14/22  5:10p   67.3   67.6   67.3    85   62.6   9.0   NNE   1.50  15.0   NNE   66.0   68.7   67.4   77.1  30.136  0.00  0.00   496     7.11    508     2.5  0.18   2.6   0.000   0.016   73.9    62   60.1   74.8  11.27  .0736    0.000   204    7    100.0   10 
 8/14/22  5:20p   67.5   67.5   67.2    85   62.8   8.0   NNE   1.33  14.0   NNE   66.9   68.9   68.3   78.2  30.133  0.00  0.00   469     6.72    480     2.2  0.16   2.3   0.000   0.017   73.9    62   60.1   74.8  11.27  .0736    0.000   202    7    100.0   10 
 8/14/22  5:30p   67.4   67.7   67.4    84   62.4   9.0    NE   1.50  16.0   NNE   66.1   68.7   67.4   76.7  30.128  0.00  0.00   443     6.35    455     2.0  0.14   2.1   0.000   0.017   74.0    62   60.2   74.9  11.27  .0736    0.000   204    7    100.0   10 
 8/14/22  5:40p   67.4   67.6   67.3    84   62.4   9.0    NE   1.50  15.0     N   66.1   68.7   67.4   76.5  30.129  0.00  0.00   416     5.96    427     1.7  0.12   1.8   0.000   0.017   73.9    62   60.1   74.8  11.27  .0736    0.000   204    7    100.0   10 
 8/14/22  5:50p   66.5   67.4   66.4    85   61.8  10.0   NNE   1.67  16.0     N   64.5   67.7   65.7   74.1  30.128  0.00  0.00   385     5.52    401     1.5  0.11   1.6   0.000   0.010   74.0    62   60.2   74.9  11.27  .0736    0.000   204    7    100.0   10 
 8/14/22  6:00p   66.7   66.9   66.5    85   62.0   9.0   NNE   1.50  14.0     N   65.4   67.9   66.6   75.1  30.124  0.00  0.00   355     5.09    367     1.3  0.09   1.4   0.000   0.012   74.0    61   59.7   74.8  11.09  .0736    0.011   204    7    100.0   10 
 8/14/22  6:10p   66.0   66.6   65.9    86   61.7   9.0   NNE   1.50  16.0     N   64.7   67.1   65.8   73.9  30.125  0.00  0.00   327     4.69    341     1.1  0.08   1.2   0.000   0.007   74.0    61   59.7   74.8  11.09  .0736    0.000   202    7    100.0   10 
 8/14/22  6:20p   66.6   66.6   65.8    86   62.3   7.0   NNE   1.17  13.0   NNE   66.6   67.8   67.8   76.1  30.122  0.00  0.00   297     4.26    308     0.9  0.06   1.0   0.000   0.011   74.0    61   59.7   74.8  11.09  .0736    0.000   202    7    100.0   10 
 8/14/22  6:30p   66.7   67.0   66.6    85   62.0   8.0    NE   1.33  14.0   ENE   66.1   67.9   67.3   74.8  30.120  0.00  0.00   269     3.86    283     0.8  0.06   0.8   0.000   0.012   73.9    61   59.6   74.7  11.09  .0736    0.000   202    7    100.0   10 
 8/14/22  6:40p   66.1   66.7   66.0    86   61.8   9.0   NNE   1.50  16.0    NE   64.8   67.2   65.9   72.5  30.119  0.00  0.00   237     3.40    251     0.6  0.04   0.7   0.000   0.008   73.8    61   59.5   74.5  11.10  .0736    0.000   203    7    100.0   10 
 8/14/22  6:50p   65.9   66.1   65.8    86   61.6   8.0   NNE   1.33  13.0   NNE   65.3   66.9   66.3   72.3  30.122  0.00  0.00   203     2.91    218     0.4  0.03   0.5   0.000   0.006   73.8    61   59.5   74.5  11.10  .0736    0.000   204    7    100.0   10 
 8/14/22  7:00p   66.2   66.2   65.8    86   61.9   7.0    NE   1.17  13.0    NE   66.2   67.3   67.3   72.3  30.119  0.00  0.00   164     2.35    185     0.0  0.00   0.0   0.000   0.008   73.8    61   59.5   74.5  11.10  .0736    0.007   204    7    100.0   10 
 8/14/22  7:10p   66.0   66.2   66.0    85   61.4   8.0   NNE   1.33  13.0   NNE   65.4   67.0   66.4   70.2  30.121  0.00  0.00   132     1.89    148     0.0  0.00   0.0   0.000   0.007   73.8    61   59.5   74.5  11.10  .0736    0.000   201    7    100.0   10 
 8/14/22  7:20p   66.0   66.1   65.9    85   61.4   8.0    NE   1.33  14.0    NE   65.4   67.0   66.4   69.1  30.117  0.00  0.00    98     1.40    114     0.0  0.00   0.0   0.000   0.007   73.8    61   59.5   74.5  11.10  .0736    0.000   202    7    100.0   10 
 8/14/22  7:30p   65.7   66.0   65.7    86   61.4   8.0    NE   1.33  16.0     N   65.1   66.7   66.1   67.6  30.116  0.00  0.00    69     0.99     81     0.0  0.00   0.0   0.000   0.005   73.8    61   59.5   74.5  11.10  .0736    0.000   203    7    100.0   10 
 8/14/22  7:40p   65.5   65.7   65.5    86   61.2   7.0    NE   1.17  13.0   NNE   65.5   66.4   66.4   65.2  30.115  0.00  0.00    46     0.66     54     0.0  0.00   0.0   0.000   0.003   73.7    61   59.4   74.4  11.10  .0736    0.000   202    7    100.0   10 
 8/14/22  7:50p   65.4   65.5   65.2    86   61.1   6.0    NE   1.00  13.0     N   65.4   66.3   66.3   64.7  30.115  0.00  0.00    27     0.39     33     0.0  0.00   0.0   0.000   0.003   73.6    61   59.3   74.3  11.11  .0736    0.000   204    7    100.0   10 
 8/14/22  8:00p   65.2   65.3   65.2    86   60.9   5.0    NE   0.83   9.0   ENE   65.2   66.1   66.1   64.2  30.111  0.00  0.00    18     0.26     19     0.0  0.00   0.0   0.000   0.001   73.5    61   59.2   74.1  11.11  .0736    0.002   203    7    100.0   10 
 8/14/22  8:10p   64.4   65.2   64.4    86   60.1   7.0    NE   1.17  13.0    NE   64.4   65.1   65.1   63.1  30.110  0.00  0.00    12     0.17     14     0.0  0.00   0.0   0.004   0.000   73.5    61   59.2   74.1  11.11  .0736    0.000   204    7    100.0   10 
 8/14/22  8:20p   63.9   64.4   63.9    86   59.6   5.0    NE   0.83  10.0   NNE   63.9   64.5   64.5   62.3  30.110  0.00  0.00     7     0.10      9     0.0  0.00   0.0   0.008   0.000   73.4    61   59.1   74.0  11.11  .0737    0.000   205    7    100.0   10 
 8/14/22  8:30p   63.3   63.9   63.3    87   59.4   5.0    NE   0.83  12.0   NNE   63.3   63.9   63.9   61.6  30.112  0.00  0.00     1     0.01      5     0.0  0.00   0.0   0.012   0.000   73.3    61   59.0   73.9  11.12  .0737    0.000   201    7    100.0   10 
 8/14/22  8:40p   63.0   63.3   63.0    88   59.4   4.0    NE   0.67  10.0    NE   63.0   63.6   63.6   61.3  30.114  0.00  0.00     0     0.00      0     0.0  0.00   0.0   0.014   0.000   73.2    61   58.9   73.7  11.12  .0737    0.000   203    7    100.0   10 
 8/14/22  8:50p   62.6   63.0   62.6    88   59.0   3.0    NE   0.50   8.0   ENE   62.6   63.1   63.1   60.7  30.120  0.00  0.00     0     0.00      0     0.0  0.00   0.0   0.017   0.000   73.2    61   58.9   73.7  11.12  .0737    0.000   201    7    100.0   10 
 8/14/22  9:00p   62.3   62.6   62.3    88   58.7   3.0    NE   0.50   7.0   NNE   62.3   62.8   62.8   60.4  30.124  0.00  0.00     0     0.00      0     0.0  0.00   0.0   0.019   0.000   73.1    61   58.8   73.6  11.13  .0737    0.001   202    7    100.0   10 
 8/14/22  9:10p   62.0   62.3   62.0    88   58.4   2.0    NE   0.33   8.0   NNE   62.0   62.4   62.4   60.0  30.128  0.00  0.00     0     0.00      0     0.0  0.00   0.0   0.021   0.000   73.1    62   59.3   73.7  11.29  .0737    0.000   202    7    100.0   10 
 8/14/22  9:20p   61.9   62.1   61.8    89   58.6   3.0    NE   0.50   8.0     E   61.9   62.4   62.4   60.0  30.127  0.00  0.00     0     0.00      0     0.0  0.00   0.0   0.022   0.000   73.2    62   59.4   73.8  11.29  .0737    0.000   202    7    100.0   10 
 8/14/22  9:30p   61.8   61.9   61.7    90   58.8   3.0    NE   0.50   8.0   ENE   61.8   62.3   62.3   59.9  30.126  0.00  0.00     0     0.00      0     0.0  0.00   0.0   0.022   0.000   73.3    62   59.5   73.9  11.28  .0737    0.000   203    7    100.0   10 
 8/14/22  9:40p   61.8   61.8   61.7    90   58.8   4.0    NE   0.67  10.0    NE   61.8   62.3   62.3   59.9  30.126  0.00  0.00     0     0.00      0     0.0  0.00   0.0   0.022   0.000   73.4    62   59.6   74.1  11.28  .0737    0.000   204    7    100.0   10 
 8/14/22  9:50p   61.7   61.8   61.7    90   58.7   4.0    NE   0.67   9.0    NE   61.7   62.2   62.2   59.8  30.128  0.00  0.00     0     0.00      0     0.0  0.00   0.0   0.023   0.000   73.5    62   59.7   74.2  11.28  .0737    0.000   204    7    100.0   10 
 8/14/22 10:00p   61.7   61.7   61.6    91   59.0   5.0    NE   0.83  10.0   ENE   61.7   62.2   62.2   59.9  30.127  0.00  0.00     0     0.00      0     0.0  0.00   0.0   0.023   0.000   73.6    61   59.3   74.3  11.11  .0737    0.001   204    7    100.0   10 
 8/14/22 10:10p   61.7   61.8   61.7    91   59.0   4.0    NE   0.67   9.0    NE   61.7   62.2   62.2   59.9  30.129  0.00  0.00     0     0.00      0     0.0  0.00   0.0   0.023   0.000   73.6    61   59.3   74.3  11.11  .0737    0.000   205    7    100.0   10 
 8/14/22 10:20p   61.7   61.7   61.6    91   59.0   5.0    NE   0.83  13.0    NE   61.7   62.2   62.2   59.9  30.128  0.00  0.00     0     0.00      0     0.0  0.00   0.0   0.023   0.000   73.7    61   59.4   74.4  11.10  .0737    0.000   203    7    100.0   10 
 8/14/22 10:30p   61.5   61.7   61.5    91   58.8   5.0    NE   0.83  12.0    NE   61.5   62.0   62.0   59.6  30.127  0.00  0.00     0     0.00      0     0.0  0.00   0.0   0.024   0.000   73.7    62   59.9   74.5  11.28  .0736    0.000   204    7    100.0   10 
 8/14/22 10:40p   61.6   61.6   61.5    91   58.9   5.0   ENE   0.83  13.0    NE   61.6   62.1   62.1   59.7  30.123  0.00  0.00     0     0.00      0     0.0  0.00   0.0   0.024   0.000   73.8    61   59.5   74.5  11.10  .0736    0.000   202    7    100.0   10 
 8/14/22 10:50p   61.7   61.7   61.6    91   59.0   5.0   ENE   0.83  11.0    NE   61.7   62.2   62.2   59.9  30.124  0.00  0.00     0     0.00      0     0.0  0.00   0.0   0.023   0.000   73.8    61   59.5   74.5  11.10  .0736    0.000   203    7    100.0   10 
 8/14/22 11:00p   61.6   61.7   61.6    91   58.9   5.0   ENE   0.83  11.0    NE   61.6   62.1   62.1   59.7  30.122  0.00  0.00     0     0.00      0     0.0  0.00   0.0   0.024   0.000   73.8    61   59.5   74.5  11.10  .0736    0.001   202    7    100.0   10 
 8/14/22 11:10p   61.5   61.7   61.5    91   58.8   4.0   ENE   0.67  12.0    NE   61.5   62.0   62.0   59.6  30.120  0.00  0.00     0     0.00      0     0.0  0.00   0.0   0.024   0.000   73.8    61   59.5   74.5  11.10  .0736    0.000   202    7    100.0   10 
 8/14/22 11:20p   61.5   61.6   61.5    92   59.2   5.0   ENE   0.83  14.0    NE   61.5   62.0   62.0   59.7  30.118  0.00  0.00     0     0.00      0     0.0  0.00   0.0   0.024   0.000   73.8    61   59.5   74.5  11.10  .0736    0.000   202    7    100.0   10 
 8/14/22 11:30p   61.5   61.6   61.5    92   59.2   5.0    NE   0.83  11.0    NE   61.5   62.0   62.0   59.7  30.119  0.00  0.00     0     0.00      0     0.0  0.00   0.0   0.024   0.000   73.8    61   59.5   74.5  11.10  .0736    0.000   203    7    100.0   10 
 8/14/22 11:40p   61.5   61.5   61.5    92   59.2   5.0   ENE   0.83  11.0   ENE   61.5   62.0   62.0   59.7  30.113  0.00  0.00     0     0.00      0     0.0  0.00   0.0   0.024   0.000   73.8    61   59.5   74.5  11.10  .0736    0.000   200    7    100.0   10 
 8/14/22 11:50p   61.4   61.5   61.4    92   59.1   4.0   ENE   0.67  10.0   ENE   61.4   61.9   61.9   59.6  30.114  0.00  0.00     0     0.00      0     0.0  0.00   0.0   0.025   0.000   73.8    61   59.5   74.5  11.10  .0736    0.000   203    7    100.0   10 
 8/15/22 12:00a   61.4   61.5   61.4    92   59.1   4.0   ENE   0.67  13.0   NNE   61.4   61.9   61.9   59.6  30.113  0.00  0.00     0     0.00      0     0.0  0.00   0.0   0.025   0.000   73.8    61   59.5   74.5  11.10  .0736    0.000   204    7    100.0   10 
 8/15/22 12:10a   61.4   61.5   61.4    92   59.1   5.0   ENE   0.83  11.0    NE   61.4   61.9   61.9   59.6  30.113  0.00  0.00     0     0.00      0     0.0  0.00   0.0   0.025   0.000   73.8    61   59.5   74.5  11.10  .0736    0.000   204    7    100.0   10 
 8/15/22 12:20a   61.2   61.4   61.2    92   58.9   4.0   ENE   0.67   9.0   ENE   61.2   61.7   61.7   59.3  30.114  0.00  0.00     0     0.00      0     0.0  0.00   0.0   0.026   0.000   73.8    61   59.5   74.5  11.10  .0736    0.000   204    7    100.0   10 
 8/15/22 12:30a   61.1   61.2   61.1    92   58.8   4.0   ENE   0.67  10.0    NE   61.1   61.6   61.6   59.2  30.113  0.00  0.00     0     0.00      0     0.0  0.00   0.0   0.027   0.000   73.6    62   59.8   74.3  11.28  .0736    0.000   201    7    100.0   10 
 8/15/22 12:40a   61.2   61.2   61.1    92   58.9   6.0    NE   1.00  11.0   NNE   61.0   61.7   61.5   59.1  30.111  0.00  0.00     0     0.00      0     0.0  0.00   0.0   0.026   0.000   73.5    62   59.7   74.2  11.28  .0736    0.000   203    7    100.0   10 
 8/15/22 12:50a   61.2   61.2   61.1    92   58.9   4.0   ENE   0.67   9.0   ENE   61.2   61.7   61.7   59.3  30.110  0.00  0.00     0     0.00      0     0.0  0.00   0.0   0.026   0.000   73.5    61   59.2   74.1  11.11  .0736    0.000   201    7    100.0   10 
 8/15/22  1:00a   61.3   61.3   61.2    92   59.0   4.0   ENE   0.67  13.0    NE   61.3   61.8   61.8   59.4  30.107  0.00  0.00     0     0.00      0     0.0  0.00   0.0   0.026   0.000   73.6    61   59.3   74.3  11.11  .0736    0.000   201    7    100.0   10 
 8/15/22  1:10a   61.3   61.3   61.2    93   59.3   5.0    NE   0.83  11.0    NE   61.3   61.8   61.8   59.5  30.109  0.00  0.00     0     0.00      0     0.0  0.00   0.0   0.026   0.000   73.6    61   59.3   74.3  11.11  .0736    0.000   204    7    100.0   10 
 8/15/22  1:20a   61.2   61.3   61.2    93   59.2   5.0   ENE   0.83  11.0   ENE   61.2   61.7   61.7   59.4  30.106  0.00  0.00     0     0.00      0     0.0  0.00   0.0   0.026   0.000   73.7    61   59.4   74.4  11.10  .0736    0.000   204    7    100.0   10 
 8/15/22  1:30a   61.2   61.3   61.2    93   59.2   4.0   ENE   0.67  11.0    NE   61.2   61.7   61.7   59.4  30.102  0.00  0.00     0     0.00      0     0.0  0.00   0.0   0.026   0.000   73.7    61   59.4   74.4  11.10  .0736    0.000   201    7    100.0   10 
 8/15/22  1:40a   61.1   61.2   61.1    93   59.1   5.0   ENE   0.83  12.0   ENE   61.1   61.6   61.6   59.3  30.102  0.00  0.00     0     0.00      0     0.0  0.00   0.0   0.027   0.000   73.7    61   59.4   74.4  11.10  .0736    0.000   202    7    100.0   10 
 8/15/22  1:50a   61.1   61.2   61.1    93   59.1   5.0   ENE   0.83  13.0    NE   61.1   61.6   61.6   59.3  30.102  0.00  0.00     0     0.00      0     0.0  0.00   0.0   0.027   0.000   73.6    61   59.3   74.3  11.11  .0736    0.000   202    7    100.0   10 
 8/15/22  2:00a   61.0   61.1   61.0    93   59.0   5.0   ENE   0.83  11.0    NE   61.0   61.5   61.5   59.1  30.099  0.00  0.00     0     0.00      0     0.0  0.00   0.0   0.028   0.000   73.6    61   59.3   74.3  11.11  .0736    0.000   205    7    100.0   10 
 8/15/22  2:10a   60.9   61.1   60.9    93   58.9   5.0    NE   0.83  11.0    NE   60.9   61.4   61.4   59.0  30.094  0.00  0.00     0     0.00      0     0.0  0.00   0.0   0.028   0.000   73.3    61   59.0   73.9  11.12  .0736    0.000   203    7    100.0   10 
 8/15/22  2:20a   60.6   60.9   60.6    93   58.6   3.0   ENE   0.50   7.0     E   60.6   61.0   61.0   58.6  30.095  0.00  0.00     0     0.00      0     0.0  0.00   0.0   0.031   0.000   73.2    62   59.4   73.8  11.29  .0736    0.000   202    7    100.0   10 
 8/15/22  2:30a   60.4   60.6   60.4    93   58.4   4.0   ENE   0.67  12.0    NE   60.4   60.8   60.8   58.4  30.093  0.00  0.00     0     0.00      0     0.0  0.00   0.0   0.032   0.000   73.3    61   59.0   73.9  11.12  .0736    0.000   202    7    100.0   10 
 8/15/22  2:40a   60.4   60.5   60.4    93   58.4   2.0    NE   0.33   7.0     E   60.4   60.8   60.8   58.4  30.098  0.00  0.00     0     0.00      0     0.0  0.00   0.0   0.032   0.000   73.3    61   59.0   73.9  11.12  .0736    0.000   201    7    100.0   10 
 8/15/22  2:50a   60.0   60.4   60.0    93   58.0   1.0    NE   0.17   4.0   ENE   60.0   60.4   60.4   58.0  30.100  0.00  0.00     0     0.00      0     0.0  0.00   0.0   0.035   0.000   73.3    61   59.0   73.9  11.12  .0737    0.000   202    7    100.0   10 
 8/15/22  3:00a   60.2   60.2   60.0    94   58.5   3.0    NE   0.50   9.0    NE   60.2   60.6   60.6   58.2  30.100  0.00  0.00     0     0.00      0     0.0  0.00   0.0   0.033   0.000   73.3    61   59.0   73.9  11.12  .0737    0.000   203    7    100.0   10 
 8/15/22  3:10a   60.2   60.2   60.1    94   58.5   2.0    NE   0.33   7.0   NNE   60.2   60.6   60.6   58.2  30.104  0.00  0.00     0     0.00      0     0.0  0.00   0.0   0.033   0.000   73.3    61   59.0   73.9  11.12  .0737    0.000   204    7    100.0   10 
 8/15/22  3:20a   60.3   60.4   60.2    94   58.6   2.0    NE   0.33   6.0    NE   60.3   60.7   60.7   58.3  30.108  0.00  0.00     0     0.00      0     0.0  0.00   0.0   0.033   0.000   73.1    61   58.8   73.6  11.13  .0737    0.000   204    7    100.0   10 
 8/15/22  3:30a   60.5   60.5   60.3    94   58.8   3.0    NE   0.50   7.0     E   60.5   60.9   60.9   58.5  30.107  0.00  0.00     0     0.00      0     0.0  0.00   0.0   0.031   0.000   73.0    61   58.8   73.5  11.13  .0737    0.000   202    7    100.0   10 
 8/15/22  3:40a   60.7   60.7   60.5    94   59.0   4.0   ENE   0.67   8.0   ENE   60.7   61.2   61.2   58.8  30.102  0.00  0.00     0     0.00      0     0.0  0.00   0.0   0.030   0.000   72.9    61   58.7   73.3  11.13  .0737    0.000   204    7    100.0   10 
 8/15/22  3:50a   60.8   60.9   60.7    94   59.1   4.0   ENE   0.67  11.0   ENE   60.8   61.3   61.3   59.0  30.100  0.00  0.00     0     0.00      0     0.0  0.00   0.0   0.029   0.000   72.8    61   58.6   73.2  11.14  .0737    0.000   204    7    100.0   10 
 8/15/22  4:00a   60.7   60.8   60.7    94   59.0   5.0    NE   0.83  10.0    NE   60.7   61.2   61.2   58.8  30.101  0.00  0.00     0     0.00      0     0.0  0.00   0.0   0.030   0.000   72.8    61   58.6   73.2  11.14  .0737    0.000   204    7    100.0   10 
 8/15/22  4:10a   60.7   60.8   60.7    94   59.0   5.0   ENE   0.83  11.0    NE   60.7   61.2   61.2   58.8  30.098  0.00  0.00     0     0.00      0     0.0  0.00   0.0   0.030   0.000   72.8    61   58.6   73.2  11.14  .0737    0.000   203    7    100.0   10 
 8/15/22  4:20a   60.7   60.8   60.7    94   59.0   5.0   ENE   0.83  12.0    NE   60.7   61.2   61.2   58.8  30.098  0.00  0.00     0     0.00      0     0.0  0.00   0.0   0.030   0.000   72.7    61   58.5   73.0  11.14  .0738    0.000   203    7    100.0   10 
 8/15/22  4:30a   60.5   60.7   60.5    94   58.8   5.0   ENE   0.83  12.0   ENE   60.5   60.9   60.9   58.5  30.093  0.00  0.00     0     0.00      0     0.0  0.00   0.0   0.031   0.000   72.7    61   58.5   73.0  11.14  .0737    0.000   204    7    100.0   10 
 8/15/22  4:40a   60.4   60.5   60.4    93   58.4   5.0   ENE   0.83  10.0     N   60.4   60.8   60.8   58.4  30.092  0.00  0.00     0     0.00      0     0.0  0.00   0.0   0.032   0.000   72.6    61   58.4   72.9  11.15  .0738    0.000   198    7    100.0   10 
 8/15/22  4:50a   60.2   60.4   60.2    93   58.2   4.0   ENE   0.67  10.0   ENE   60.2   60.6   60.6   58.2  30.091  0.00  0.00     0     0.00      0     0.0  0.00   0.0   0.033   0.000   72.6    61   58.4   72.9  11.15  .0738    0.000   198    7    100.0   10 
 8/15/22  5:00a   60.0   60.2   60.0    93   58.0   4.0   ENE   0.67  11.0   ENE   60.0   60.4   60.4   58.0  30.089  0.00  0.00     0     0.00      0     0.0  0.00   0.0   0.035   0.000   72.6    61   58.4   72.9  11.15  .0738    0.000   203    7    100.0   10 
 8/15/22  5:10a   60.1   60.1   59.9    93   58.1   4.0   ENE   0.67  10.0   ENE   60.1   60.5   60.5   58.1  30.089  0.00  0.00     0     0.00      0     0.0  0.00   0.0   0.034   0.000   72.5    61   58.3   72.7  11.15  .0738    0.000   204    7    100.0   10 
 8/15/22  5:20a   60.2   60.2   60.0    93   58.2   4.0   ENE   0.67   9.0    NE   60.2   60.6   60.6   58.2  30.090  0.00  0.00     0     0.00      0     0.0  0.00   0.0   0.033   0.000   72.5    61   58.3   72.7  11.15  .0738    0.000   203    7    100.0   10 
 8/15/22  5:30a   60.1   60.2   60.1    93   58.1   5.0   ENE   0.83  11.0     N   60.1   60.5   60.5   58.1  30.087  0.00  0.00     0     0.00      0     0.0  0.00   0.0   0.034   0.000   72.5    61   58.3   72.7  11.15  .0738    0.000   202    7    100.0   10 
 8/15/22  5:40a   60.0   60.1   60.0    93   58.0   5.0   ENE   0.83  13.0    NE   60.0   60.4   60.4   58.0  30.085  0.00  0.00     0     0.00      0     0.0  0.00   0.0   0.035   0.000   72.5    61   58.3   72.7  11.15  .0738    0.000   203    7    100.0   10 
 8/15/22  5:50a   60.0   60.1   60.0    94   58.3   5.0   ENE   0.83  10.0   NNE   60.0   60.4   60.4   58.0  30.083  0.00  0.00     0     0.00      0     0.0  0.00   0.0   0.035   0.000   72.7    61   58.5   73.0  11.14  .0737    0.000   203    7    100.0   10 
 8/15/22  6:00a   59.9   60.0   59.9    94   58.2   5.0   ENE   0.83  13.0   ENE   59.9   60.3   60.3   57.9  30.083  0.00  0.00     0     0.00      0     0.0  0.00   0.0   0.035   0.000   72.7    61   58.5   73.0  11.14  .0737    0.000   203    7    100.0   10 
 8/15/22  6:10a   59.9   60.0   59.8    94   58.2   5.0   ENE   0.83  13.0    NE   59.9   60.3   60.3   57.9  30.083  0.00  0.00     0     0.00      0     0.0  0.00   0.0   0.035   0.000   72.8    61   58.6   73.2  11.14  .0737    0.000   201    7    100.0   10 
 8/15/22  6:20a   59.8   59.9   59.7    94   58.1   4.0   ENE   0.67  12.0    NE   59.8   60.2   60.2   57.9  30.087  0.00  0.00     2     0.03      5     0.0  0.00   0.0   0.036   0.000   72.8    61   58.6   73.2  11.14  .0737    0.000   204    7    100.0   10 
 8/15/22  6:30a   59.6   59.8   59.6    94   57.9   4.0   ENE   0.67   9.0   ENE   59.6   60.0   60.0   57.7  30.086  0.00  0.00     8     0.11     11     0.0  0.00   0.0   0.038   0.000   72.8    60   58.1   73.1  10.99  .0737    0.000   205    7    100.0   10 
 8/15/22  6:40a   59.7   59.8   59.6    94   58.0   3.0   ENE   0.50  10.0    NE   59.7   60.1   60.1   58.1  30.088  0.00  0.00    19     0.27     21     0.0  0.00   0.0   0.037   0.000   72.9    60   58.2   73.3  10.99  .0737    0.000   204    7    100.0   10 
 8/15/22  6:50a   59.9   59.9   59.8    94   58.2   3.0   ENE   0.50   8.0   ENE   59.9   60.3   60.3   58.4  30.091  0.00  0.00    20     0.29     23     0.0  0.00   0.0   0.035   0.000   72.9    60   58.2   73.3  10.99  .0737    0.000   204    7    100.0   10 
 8/15/22  7:00a   59.9   59.9   59.8    94   58.2   4.0   ENE   0.67  10.0    NE   59.9   60.3   60.3   59.7  30.093  0.00  0.00    22     0.32     23     0.0  0.00   0.0   0.035   0.000   72.9    60   58.2   73.3  10.99  .0737    0.000   204    7    100.0   10 
 8/15/22  7:10a   59.7   59.9   59.7    93   57.7   3.0   ENE   0.50   9.0    NE   59.7   60.0   60.0   59.7  30.094  0.00  0.00    30     0.43     44     0.0  0.00   0.0   0.037   0.000   72.9    60   58.2   73.3  10.99  .0737    0.000   202    7    100.0   10 
 8/15/22  7:20a   60.0   60.0   59.6    94   58.3   4.0   ENE   0.67  11.0   ENE   60.0   60.4   60.4   60.8  30.094  0.00  0.00    46     0.66     54     0.0  0.00   0.0   0.035   0.000   73.0    60   58.3   73.4  10.99  .0737    0.000   202    7    100.0   10 
 8/15/22  7:30a   60.3   60.3   60.0    94   58.6   5.0    NE   0.83  10.0    NE   60.3   60.7   60.7   61.5  30.094  0.00  0.00    55     0.79     62     0.0  0.00   0.0   0.033   0.000   73.0    60   58.3   73.4  10.99  .0737    0.000   204    7    100.0   10 
 8/15/22  7:40a   60.4   60.4   60.2    94   58.7   4.0    NE   0.67  10.0    NE   60.4   60.8   60.8   62.1  30.097  0.00  0.00    70     1.00    100     0.0  0.00   0.0   0.032   0.000   73.1    60   58.4   73.5  10.99  .0737    0.000   203    7    100.0   10 
 8/15/22  7:50a   60.7   60.7   60.4    94   59.0   4.0    NE   0.67  11.0   ENE   60.7   61.2   61.2   64.1  30.098  0.00  0.00   112     1.61    174     0.0  0.00   0.0   0.030   0.000   73.1    60   58.4   73.5  10.99  .0737    0.000   202    7    100.0   10 
 8/15/22  8:00a   61.9   61.9   60.7    93   59.9   7.0    NE   1.17  12.0    NE   61.6   62.5   62.2   71.7  30.099  0.00  0.00   352     5.05    390     0.1  0.01   0.5   0.022   0.000   73.2    60   58.5   73.7  10.99  .0737    0.002   203    7    100.0   10 
 8/15/22  8:10a   63.0   63.0   61.9    92   60.6   4.0   ENE   0.67  13.0    NE   63.0   63.7   63.7   73.2  30.097  0.00  0.00   364     5.22    404     0.6  0.04   0.7   0.014   0.000   73.3    60   58.6   73.8  10.98  .0737    0.000   203    7    100.0   10 
Email: AdamSPAM@StormwatchersRetreat.com (To send me email remove the word 'SPAM' from my email address.)